Absecon Heights, New Jersey
Current Conditions -  °F | °C
As of 2:54 AM on Thursday 18 Dec 2014 (Local Time) from KACY Reporting Station
Clear Clear  
Wind Chill: 25°   Ceiling: Unl
Heat Index: 34°   Visibility: 10mi
Dew Point: 23°   Wind: 12mph
Humidity: 64%   Direction: 280°W
Pressure: 29.99"   Gusts: NA
Location:  39.4315°N, 74.5003°W
Report Text: KACY 180754Z 28010KT 10SM CLR 01/M05 A2999 RMK AO2 SLP157 T00111050
Loading
Personal Weather Stations






























Interactive Weather Map New forecast layout! Learn more

10-Day Weather Forecast

Advertisements
Track Severe Weather on mobile